Time;durP1;ratioP1;P1;durP2;ratioP2;P2;SDS_P1;SDS_P2;PMS_P1;PMS_P2;Temp;Humidity;BMP_temperature;BMP_pressure;BME280_temperature;BME280_humidity;BME280_pressure;Samples;Min_cycle;Max_cycle;Signal;HPM_P1;HPM_P2
2022/10/25 00:01:46;;;;;;;15.07;10.48;;;;;;;21.03;61.00;101811.12;143716;605;47008;-69
2022/10/25 00:04:13;;;;;;;16.12;10.10;;;;;;;21.02;60.56;101811.38;143715;584;47004;-69
2022/10/25 00:06:40;;;;;;;14.40;10.88;;;;;;;21.01;60.57;101804.25;143716;612;47012;-69
2022/10/25 00:09:07;;;;;;;16.90;10.30;;;;;;;21.03;60.79;101805.66;143714;587;47006;-69
2022/10/25 00:11:33;;;;;;;14.13;11.10;;;;;;;21.05;60.74;101802.69;143716;620;47008;-69
2022/10/25 00:14:03;;;;;;;16.92;11.07;;;;;;;21.00;60.52;101808.88;143717;687;47002;-69
2022/10/25 00:16:34;;;;;;;17.20;10.45;;;;;;;21.02;60.27;101803.19;143715;575;47012;-69
2022/10/25 00:19:00;;;;;;;19.67;10.30;;;;;;;21.00;60.63;101805.31;143714;628;47006;-69
2022/10/25 00:21:26;;;;;;;14.27;10.98;;;;;;;20.99;60.43;101803.66;143715;585;47003;-70
2022/10/25 00:23:53;;;;;;;13.57;10.02;;;;;;;20.99;60.57;101809.13;143714;598;47006;-69
2022/10/25 00:26:20;;;;;;;18.55;10.30;;;;;;;20.96;60.25;101806.87;143715;582;47012;-69
2022/10/25 00:28:47;;;;;;;15.68;11.18;;;;;;;20.92;60.35;101800.22;143715;626;47005;-70
2022/10/25 00:31:16;;;;;;;15.35;10.48;;;;;;;20.90;60.31;101795.00;143719;610;46008;-69
2022/10/25 00:33:43;;;;;;;15.13;9.85;;;;;;;20.86;60.58;101788.38;143718;586;47006;-70
2022/10/25 00:36:15;;;;;;;17.05;9.90;;;;;;;20.85;60.46;101789.44;143716;585;47004;-65
2022/10/25 00:38:43;;;;;;;15.05;10.38;;;;;;;20.83;60.10;101781.50;143713;573;47006;-70
2022/10/25 00:41:11;;;;;;;13.90;9.68;;;;;;;20.80;60.41;101781.97;143715;592;47008;-69
2022/10/25 00:44:21;;;;;;;14.65;9.98;;;;;;;20.81;60.12;101777.38;143715;567;47004;-68
2022/10/25 00:46:47;;;;;;;10.98;8.57;;;;;;;20.82;60.48;101777.13;143716;596;47012;-69
2022/10/25 00:49:18;;;;;;;11.60;9.43;;;;;;;20.80;60.36;101775.72;143713;566;47006;-69
2022/10/25 00:51:55;;;;;;;13.18;9.32;;;;;;;20.77;60.33;101774.28;143715;578;47008;-69
2022/10/25 00:54:29;;;;;;;16.92;9.63;;;;;;;20.73;59.76;101765.72;143716;591;47004;-68
2022/10/25 00:56:58;;;;;;;15.98;9.73;;;;;;;20.72;59.93;101761.31;143715;581;47010;-69
2022/10/25 00:59:27;;;;;;;16.33;9.02;;;;;;;20.73;59.54;101760.25;143712;703;47010;-69
2022/10/25 01:01:54;;;;;;;13.75;9.45;;;;;;;20.72;60.12;101760.50;143714;604;47924;-69
2022/10/25 01:04:25;;;;;;;15.50;9.48;;;;;;;20.69;59.72;101761.78;143715;578;47006;-68
2022/10/25 01:06:52;;;;;;;11.40;8.90;;;;;;;20.66;60.26;101756.00;143713;634;47012;-70
2022/10/25 01:09:25;;;;;;;13.73;9.15;;;;;;;20.64;60.30;101752.69;143716;602;47004;-69
2022/10/25 01:11:52;;;;;;;12.57;9.25;;;;;;;20.63;60.59;101742.81;143717;604;47008;-68
2022/10/25 01:14:19;;;;;;;11.65;9.05;;;;;;;20.63;60.34;101748.28;143715;692;47006;-68
2022/10/25 01:17:27;;;;;;;15.85;10.27;;;;;;;20.62;60.53;101739.28;143716;581;47010;-69
2022/10/25 01:20:37;;;;;;;12.30;8.70;;;;;;;20.60;60.24;101733.22;143714;576;47006;-69
2022/10/25 01:23:30;;;;;;;18.87;10.55;;;;;;;20.58;60.76;101719.81;143717;587;46008;-69
2022/10/25 01:26:37;;;;;;;17.37;10.80;;;;;;;20.59;60.69;101723.38;143711;681;47004;-69
2022/10/25 01:29:37;;;;;;;12.75;9.07;;;;;;;20.56;60.53;101716.50;143710;708;47012;-69
2022/10/25 01:32:32;;;;;;;17.77;9.63;;;;;;;20.54;60.71;101717.81;143715;636;47004;-70
2022/10/25 01:35:18;;;;;;;12.27;9.45;;;;;;;20.54;60.60;101715.94;143717;587;47009;-69
2022/10/25 01:38:17;;;;;;;14.45;9.07;;;;;;;20.50;60.37;101712.00;143745;599;46006;-68
2022/10/25 01:41:08;;;;;;;11.02;9.70;;;;;;;20.48;60.68;101707.84;143742;572;46008;-69
2022/10/25 01:43:56;;;;;;;20.33;10.45;;;;;;;20.47;60.80;101706.22;143748;643;46007;-68
2022/10/25 01:46:57;;;;;;;15.27;9.98;;;;;;;20.45;60.34;101720.09;143746;661;45008;-69
2022/10/25 01:49:49;;;;;;;12.82;9.40;;;;;;;20.39;60.35;101704.66;143744;587;46004;-69
2022/10/25 01:52:21;;;;;;;12.57;10.25;;;;;;;20.40;60.63;101709.91;143746;577;45923;-68
2022/10/25 01:54:48;;;;;;;16.42;9.38;;;;;;;20.35;61.00;101707.06;143742;622;46006;-68
2022/10/25 01:57:34;;;;;;;13.75;9.52;;;;;;;20.36;61.01;101708.72;143747;573;45008;-69
2022/10/25 02:00:17;;;;;;;14.10;8.80;;;;;;;20.37;60.53;101707.66;143746;580;46004;-68
2022/10/25 02:03:35;;;;;;;15.55;9.82;;;;;;;20.39;60.80;101704.66;143745;603;45922;-69
2022/10/25 02:06:33;;;;;;;16.73;9.45;;;;;;;20.33;60.26;101706.47;143742;676;46012;-69
2022/10/25 02:09:11;;;;;;;13.30;9.20;;;;;;;20.31;60.58;101714.06;143746;581;45924;-70
2022/10/25 02:11:38;;;;;;;17.10;10.52;;;;;;;20.30;60.59;101702.31;143746;584;46004;-69
2022/10/25 02:14:43;;;;;;;14.52;9.35;;;;;;;20.27;60.96;101702.81;143743;582;46011;-68
2022/10/25 02:17:18;;;;;;;13.23;9.57;;;;;;;20.28;60.31;101701.72;143743;676;46006;-70
2022/10/25 02:19:52;;;;;;;14.00;9.00;;;;;;;20.27;60.26;101704.72;143745;572;46002;-70
2022/10/25 02:22:23;;;;;;;13.13;9.63;;;;;;;20.25;60.42;101713.12;143744;721;46004;-70
2022/10/25 02:24:50;;;;;;;15.98;9.25;;;;;;;20.25;60.15;101707.66;143747;616;46006;-69
2022/10/25 02:27:19;;;;;;;15.55;9.60;;;;;;;20.25;60.34;101706.84;143743;599;46006;-69
2022/10/25 02:29:46;;;;;;;17.45;10.32;;;;;;;20.23;60.46;101706.25;143745;602;46002;-69
2022/10/25 02:32:13;;;;;;;14.00;9.60;;;;;;;20.23;60.50;101707.06;143746;603;46004;-69
2022/10/25 02:34:40;;;;;;;10.77;9.40;;;;;;;20.20;60.16;101712.19;143744;596;46011;-69
2022/10/25 02:37:06;;;;;;;12.73;8.98;;;;;;;20.18;60.46;101715.16;143720;567;47004;-69
2022/10/25 02:39:34;;;;;;;12.60;10.25;;;;;;;20.18;60.30;101717.03;143715;601;47008;-68
2022/10/25 02:42:03;;;;;;;17.77;9.35;;;;;;;20.17;60.08;101709.94;143717;617;47004;-68
2022/10/25 02:44:29;;;;;;;13.05;8.90;;;;;;;20.16;60.12;101711.84;143714;593;47013;-68
2022/10/25 02:46:56;;;;;;;19.80;9.35;;;;;;;20.16;60.21;101717.28;143714;569;47006;-69
2022/10/25 02:49:22;;;;;;;10.27;8.82;;;;;;;20.14;60.09;101717.50;143716;602;47008;-69
2022/10/25 02:51:49;;;;;;;14.27;9.80;;;;;;;20.13;60.06;101715.03;143716;655;47004;-69
2022/10/25 02:54:15;;;;;;;14.18;9.95;;;;;;;20.13;60.37;101717.75;143715;579;47012;-69
2022/10/25 02:56:42;;;;;;;16.15;9.43;;;;;;;20.09;60.11;101717.41;143715;597;47004;-68
2022/10/25 02:59:11;;;;;;;17.70;9.30;;;;;;;20.10;59.77;101724.53;143716;589;47008;-70
2022/10/25 03:01:38;;;;;;;22.55;9.57;;;;;;;20.07;59.98;101716.81;143713;577;47004;-68
2022/10/25 03:04:04;;;;;;;21.17;9.30;;;;;;;20.02;60.10;101713.97;143715;744;47010;-69
2022/10/25 03:06:30;;;;;;;17.92;8.25;;;;;;;20.03;59.94;101712.09;143714;580;47006;-68
2022/10/25 03:08:57;;;;;;;15.32;9.35;;;;;;;19.99;60.20;101706.25;143716;611;47008;-69
2022/10/25 03:11:23;;;;;;;16.42;8.70;;;;;;;19.96;60.15;101718.47;143717;574;47002;-69
2022/10/25 03:13:50;;;;;;;13.38;8.25;;;;;;;19.99;59.77;101717.16;143716;573;47010;-69
2022/10/25 03:16:16;;;;;;;17.85;9.48;;;;;;;19.97;60.12;101713.84;143714;575;47006;-69
2022/10/25 03:18:42;;;;;;;15.15;9.02;;;;;;;19.95;59.56;101711.37;143716;568;47008;-69
2022/10/25 03:21:08;;;;;;;14.63;8.90;;;;;;;19.95;59.86;101716.81;143715;597;47004;-68
2022/10/25 03:23:35;;;;;;;13.18;9.30;;;;;;;19.93;59.89;101715.41;143718;573;46027;-69
2022/10/25 03:26:02;;;;;;;11.55;7.93;;;;;;;19.88;59.61;101716.09;143715;566;47004;-69
2022/10/25 03:28:30;;;;;;;12.50;8.57;;;;;;;19.85;59.45;101728.28;143717;608;47000;-70
2022/10/25 03:30:58;;;;;;;13.73;8.10;;;;;;;19.83;59.65;101724.16;143716;637;47002;-69
2022/10/25 03:33:25;;;;;;;17.55;8.95;;;;;;;19.85;59.70;101728.28;143715;593;47010;-69
2022/10/25 03:35:53;;;;;;;14.65;8.35;;;;;;;19.85;59.41;101728.28;143714;568;47004;-69
2022/10/25 03:38:19;;;;;;;14.90;8.13;;;;;;;19.82;58.97;101727.94;143717;592;47006;-69
2022/10/25 03:40:45;;;;;;;16.15;8.27;;;;;;;19.79;58.98;101731.94;143714;646;47004;-68
2022/10/25 03:43:12;;;;;;;18.00;8.45;;;;;;;19.78;59.23;101726.75;143716;599;47010;-69
2022/10/25 03:45:38;;;;;;;19.42;7.62;;;;;;;19.77;59.50;101730.53;143714;567;47931;-69
2022/10/25 03:48:05;;;;;;;14.57;7.78;;;;;;;19.73;59.40;101732.91;143717;700;47006;-69
2022/10/25 03:50:32;;;;;;;14.93;7.85;;;;;;;19.73;59.76;101723.88;143716;662;47000;-70
2022/10/25 03:52:59;;;;;;;13.68;7.43;;;;;;;19.71;59.53;101732.31;143715;567;47008;-68
2022/10/25 03:55:25;;;;;;;15.52;7.53;;;;;;;19.69;59.94;101734.44;143716;597;47002;-68
2022/10/25 03:57:51;;;;;;;12.95;7.65;;;;;;;19.68;59.59;101736.31;143718;573;47007;-69
2022/10/25 04:00:18;;;;;;;12.45;7.53;;;;;;;19.69;59.50;101726.25;143717;572;47004;-69
2022/10/25 04:02:44;;;;;;;17.42;7.72;;;;;;;19.66;59.41;101729.44;143716;594;47010;-69
2022/10/25 04:05:10;;;;;;;12.88;6.70;;;;;;;19.64;59.61;101739.75;143714;648;47004;-68
2022/10/25 04:07:37;;;;;;;13.98;7.45;;;;;;;19.62;59.86;101733.69;143717;621;47006;-69
2022/10/25 04:10:04;;;;;;;14.68;7.47;;;;;;;19.63;59.94;101741.66;143718;584;47002;-69
2022/10/25 04:12:30;;;;;;;19.50;7.07;;;;;;;19.62;60.22;101739.16;143715;567;47009;-68
2022/10/25 04:14:56;;;;;;;16.35;7.05;;;;;;;19.64;59.66;101735.16;143722;649;47008;-68
2022/10/25 04:17:23;;;;;;;23.02;7.47;;;;;;;19.64;59.65;101740.59;143717;578;47006;-68
2022/10/25 04:19:49;;;;;;;13.73;7.62;;;;;;;19.66;59.70;101740.34;143716;692;47002;-69
2022/10/25 04:22:16;;;;;;;14.50;7.57;;;;;;;19.67;59.68;101742.00;143714;587;47010;-68
2022/10/25 04:24:42;;;;;;;18.62;8.00;;;;;;;19.72;59.74;101736.69;143714;600;47004;-69
2022/10/25 04:27:08;;;;;;;18.52;8.93;;;;;;;19.74;60.29;101744.63;143717;583;47006;-68
2022/10/25 04:29:35;;;;;;;20.35;8.65;;;;;;;19.77;59.98;101742.25;143716;582;47004;-68
2022/10/25 04:32:01;;;;;;;16.23;9.02;;;;;;;19.75;59.76;101736.22;143715;585;47008;-69
2022/10/25 04:34:27;;;;;;;23.25;8.68;;;;;;;19.73;59.94;101748.41;143713;588;47005;-69
2022/10/25 04:36:54;;;;;;;20.60;8.23;;;;;;;19.71;60.28;101740.50;143716;573;47006;-68
2022/10/25 04:39:20;;;;;;;16.75;8.23;;;;;;;19.70;59.97;101739.66;143718;567;47002;-68
2022/10/25 04:41:46;;;;;;;20.88;8.30;;;;;;;19.70;59.55;101739.66;143714;577;47009;-68
2022/10/25 04:44:13;;;;;;;17.58;8.20;;;;;;;19.68;59.98;101738.22;143716;592;47002;-69
2022/10/25 04:46:39;;;;;;;22.52;8.65;;;;;;;19.66;59.60;101741.19;143716;570;47006;-69
2022/10/25 04:49:05;;;;;;;20.42;9.45;;;;;;;19.66;59.62;101752.09;143715;593;47002;-69
2022/10/25 04:51:33;;;;;;;30.42;10.30;;;;;;;19.64;59.23;101737.03;143716;586;47011;-68
2022/10/25 04:53:59;;;;;;;18.20;8.90;;;;;;;19.63;58.95;101758.00;143715;620;47004;-69
2022/10/25 04:56:28;;;;;;;17.98;9.45;;;;;;;19.63;59.61;101746.25;143718;589;47006;-68
2022/10/25 04:58:54;;;;;;;16.30;9.63;;;;;;;19.61;59.32;101753.84;143716;677;47000;-69
2022/10/25 05:01:21;;;;;;;21.55;9.57;;;;;;;19.61;59.42;101756.56;143716;593;47008;-68
2022/10/25 05:03:48;;;;;;;30.10;9.98;;;;;;;19.60;59.70;101754.91;143716;567;47008;-69
2022/10/25 05:06:24;;;;;;;18.85;10.02;;;;;;;19.59;60.46;101756.00;143715;587;47002;-68
2022/10/25 05:08:51;;;;;;;24.30;10.65;;;;;;;19.56;60.29;101753.75;143717;579;47000;-69
2022/10/25 05:11:20;;;;;;;19.75;11.38;;;;;;;19.54;60.53;101749.34;143716;580;47010;-69
2022/10/25 05:13:47;;;;;;;19.62;10.52;;;;;;;19.54;60.51;101756.69;143715;594;47009;-70
2022/10/25 05:16:22;;;;;;;19.77;10.95;;;;;;;19.56;60.17;101751.00;143717;600;47006;-70
2022/10/25 05:18:54;;;;;;;29.55;10.68;;;;;;;19.55;60.42;101750.16;143718;769;47004;-69
2022/10/25 05:21:23;;;;;;;20.33;11.55;;;;;;;19.59;60.33;101758.72;143716;584;47008;-68
2022/10/25 05:23:50;;;;;;;18.75;11.43;;;;;;;19.66;60.42;101764.88;143717;761;47004;-68
2022/10/25 05:26:19;;;;;;;20.55;11.38;;;;;;;19.72;60.34;101763.09;143717;604;47006;-68
2022/10/25 05:28:48;;;;;;;23.87;10.98;;;;;;;19.72;60.42;101760.38;143720;598;47000;-71
2022/10/25 05:31:17;;;;;;;22.23;10.75;;;;;;;19.74;59.99;101775.47;143715;600;47922;-69
2022/10/25 05:33:47;;;;;;;19.62;11.70;;;;;;;19.73;60.62;101757.44;143716;596;47004;-68
2022/10/25 05:36:14;;;;;;;20.98;12.85;;;;;;;19.73;60.25;101772.94;143718;570;47006;-69
2022/10/25 05:38:41;;;;;;;23.33;12.27;;;;;;;19.77;60.09;101777.69;143718;585;47002;-68
2022/10/25 05:41:09;;;;;;;19.12;12.37;;;;;;;19.81;59.85;101769.91;143718;573;47009;-69
2022/10/25 05:43:36;;;;;;;27.95;11.02;;;;;;;19.85;58.99;101771.09;143716;695;47004;-68
2022/10/25 05:46:13;;;;;;;23.40;11.12;;;;;;;19.87;58.21;101768.97;143719;685;47006;-68
2022/10/25 05:48:40;;;;;;;42.13;11.98;;;;;;;19.89;58.29;101766.03;143717;595;47004;-68
2022/10/25 05:51:26;;;;;;;22.35;12.05;;;;;;;19.92;58.52;101771.00;143719;591;46008;-68
2022/10/25 05:53:54;;;;;;;26.58;12.88;;;;;;;19.93;58.76;101778.94;143715;698;47004;-68
2022/10/25 05:56:23;;;;;;;19.33;10.95;;;;;;;19.93;58.47;101784.41;143719;595;47007;-69
2022/10/25 05:58:50;;;;;;;30.30;11.77;;;;;;;19.93;58.23;101778.94;143716;636;47004;-68
2022/10/25 06:01:19;;;;;;;24.05;10.93;;;;;;;19.96;58.47;101788.53;143718;704;47008;-68
2022/10/25 06:03:50;;;;;;;21.92;10.93;;;;;;;19.96;58.56;101789.37;143715;573;47004;-69
2022/10/25 06:06:17;;;;;;;29.92;11.12;;;;;;;20.01;58.41;101801.47;143718;742;47006;-69
2022/10/25 06:08:43;;;;;;;23.58;11.12;;;;;;;20.05;57.64;101798.03;143717;572;47004;-68
2022/10/25 06:11:15;;;;;;;25.23;10.57;;;;;;;20.07;57.68;101792.34;143712;574;47010;-68
2022/10/25 06:13:42;;;;;;;21.55;11.55;;;;;;;20.12;57.79;101787.84;143715;583;47004;-68
2022/10/25 06:16:14;;;;;;;37.13;20.05;;;;;;;20.20;57.46;101796.75;143720;597;46006;-66
2022/10/25 06:18:42;;;;;;;39.03;20.00;;;;;;;20.25;57.45;101796.88;143724;589;46002;-64
2022/10/25 06:21:13;;;;;;;41.42;16.52;;;;;;;20.29;57.36;101801.59;143722;644;46010;-70
2022/10/25 06:23:41;;;;;;;31.37;14.10;;;;;;;20.34;57.31;101797.34;143713;587;47004;-70
2022/10/25 06:26:12;;;;;;;23.12;12.45;;;;;;;20.43;57.09;101801.34;143717;596;47007;-75
2022/10/25 06:28:39;;;;;;;25.42;13.23;;;;;;;20.49;57.58;101807.75;143718;587;47004;-68
2022/10/25 06:31:13;;;;;;;39.08;14.73;;;;;;;20.57;57.52;101808.22;143720;574;47010;-68
2022/10/25 06:33:41;;;;;;;31.35;15.25;;;;;;;20.66;57.55;101813.31;143717;569;47002;-68
2022/10/25 06:36:12;;;;;;;25.15;12.63;;;;;;;20.73;57.36;101812.13;143719;597;47006;-68
2022/10/25 06:38:38;;;;;;;23.10;12.48;;;;;;;20.81;56.86;101808.22;143718;572;47004;-69
2022/10/25 06:41:12;;;;;;;25.95;11.93;;;;;;;20.91;56.54;101810.34;143716;582;47010;-69
2022/10/25 06:43:38;;;;;;;24.97;12.53;;;;;;;20.95;56.20;101808.78;143715;657;47004;-68
2022/10/25 06:46:09;;;;;;;24.95;13.02;;;;;;;20.98;56.93;101816.50;143718;732;47006;-68
2022/10/25 06:48:36;;;;;;;29.60;11.75;;;;;;;21.02;57.35;101811.38;143717;596;47004;-68
2022/10/25 06:51:10;;;;;;;19.52;11.77;;;;;;;21.06;58.11;101815.28;143718;576;47008;-68
2022/10/25 06:53:36;;;;;;;;;;;;;;;21.05;58.04;101808.16;143720;978;47004;-67
2022/10/25 06:56:06;;;;;;;19.02;10.13;;;;;;;21.09;58.21;101811.22;143727;632;47009;-67
2022/10/25 06:58:33;;;;;;;20.40;11.98;;;;;;;21.15;57.80;101807.53;143715;659;47002;-67
2022/10/25 07:01:05;;;;;;;28.10;12.32;;;;;;;21.22;57.88;101813.66;143717;593;47010;-68
2022/10/25 07:03:35;;;;;;;29.65;11.52;;;;;;;21.31;57.63;101814.97;143716;581;47004;-69
2022/10/25 07:06:07;;;;;;;21.30;12.35;;;;;;;21.46;58.04;101819.03;143716;697;47006;-70
2022/10/25 07:08:36;;;;;;;19.30;12.35;;;;;;;21.58;57.77;101814.34;143716;595;47004;-70
2022/10/25 07:11:03;;;;;;;20.83;14.20;;;;;;;21.67;57.49;101816.72;143718;592;47010;-70
2022/10/25 07:13:33;;;;;;;26.98;13.95;;;;;;;21.76;57.94;101812.47;143716;567;47004;-69
2022/10/25 07:16:07;;;;;;;21.48;13.68;;;;;;;21.85;59.06;101813.75;143714;652;47006;-70
2022/10/25 07:18:35;;;;;;;23.75;15.07;;;;;;;21.93;59.51;101807.03;143718;573;47004;-68
2022/10/25 07:21:03;;;;;;;26.75;13.85;;;;;;;22.03;59.62;101807.19;143716;579;47008;-70
2022/10/25 07:23:30;;;;;;;19.40;15.10;;;;;;;22.13;59.28;101812.00;143716;586;47004;-70
2022/10/25 07:25:58;;;;;;;28.42;15.75;;;;;;;22.20;59.23;101814.53;143714;593;47006;-70
2022/10/25 07:28:25;;;;;;;29.35;15.88;;;;;;;22.29;59.20;101812.22;143719;568;47000;-71
2022/10/25 07:30:52;;;;;;;32.45;17.55;;;;;;;22.38;59.47;101811.53;143716;572;47008;-70
2022/10/25 07:33:19;;;;;;;28.85;17.00;;;;;;;22.46;59.36;101809.50;143716;660;47004;-69
2022/10/25 07:35:47;;;;;;;31.90;18.77;;;;;;;22.53;59.43;101810.13;143712;657;47006;-69
2022/10/25 07:38:14;;;;;;;37.63;21.05;;;;;;;22.60;58.93;101810.78;143718;664;47004;-69
2022/10/25 07:40:41;;;;;;;31.08;20.75;;;;;;;22.67;58.64;101808.69;143717;573;47008;-69
2022/10/25 07:43:08;;;;;;;34.15;21.83;;;;;;;22.76;58.59;101806.34;143715;602;47004;-69
2022/10/25 07:45:35;;;;;;;28.00;21.25;;;;;;;22.86;58.89;101808.34;143715;603;47006;-70
2022/10/25 07:48:01;;;;;;;33.25;22.60;;;;;;;22.94;59.21;101807.94;143718;742;47002;-70
2022/10/25 07:50:27;;;;;;;35.90;22.58;;;;;;;23.07;58.79;101819.56;143717;573;47008;-69
2022/10/25 07:52:56;;;;;;;31.77;23.27;;;;;;;23.00;59.19;101817.88;143717;613;47008;-69
2022/10/25 07:55:23;;;;;;;33.20;21.30;;;;;;;23.06;58.71;101810.53;143717;597;47006;-68
2022/10/25 07:57:49;;;;;;;37.13;22.40;;;;;;;23.20;59.12;101804.66;143720;599;47000;-68
2022/10/25 08:00:16;;;;;;;30.62;21.92;;;;;;;23.29;59.13;101806.69;143716;576;47008;-69
2022/10/25 08:02:43;;;;;;;31.12;20.92;;;;;;;23.41;58.76;101806.56;143716;597;47005;-71
2022/10/25 08:05:09;;;;;;;31.23;20.48;;;;;;;23.51;58.64;101803.09;143717;632;47006;-68
2022/10/25 08:07:35;;;;;;;30.58;21.33;;;;;;;23.56;58.91;101799.56;143717;742;47004;-68
2022/10/25 08:10:02;;;;;;;30.08;21.60;;;;;;;23.65;58.69;101808.94;143719;569;47008;-69
2022/10/25 08:12:28;;;;;;;32.17;20.58;;;;;;;23.71;58.40;101799.69;143718;603;47004;-69
2022/10/25 08:14:55;;;;;;;30.62;21.48;;;;;;;23.70;58.03;101803.50;143717;578;47008;-69
2022/10/25 08:17:21;;;;;;;29.65;22.27;;;;;;;23.75;58.00;101802.72;143718;567;47006;-70
2022/10/25 08:19:47;;;;;;;31.15;20.55;;;;;;;23.78;58.34;101799.47;143719;576;47010;-68
2022/10/25 08:22:14;;;;;;;35.05;21.23;;;;;;;23.88;57.95;101791.34;143716;579;47006;-71
2022/10/25 08:24:40;;;;;;;26.42;20.67;;;;;;;24.05;58.13;101791.19;143719;576;47009;-70
2022/10/25 08:27:07;;;;;;;27.15;20.05;;;;;;;24.16;57.32;101791.28;143719;567;47002;-70
2022/10/25 08:29:33;;;;;;;28.25;18.58;;;;;;;24.31;57.27;101782.31;143717;610;47012;-69
2022/10/25 08:32:00;;;;;;;25.08;19.17;;;;;;;24.35;56.86;101788.91;143717;671;47006;-70
2022/10/25 08:34:26;;;;;;;26.65;20.00;;;;;;;24.43;56.33;101784.84;143716;650;47008;-71
2022/10/25 08:36:52;;;;;;;27.92;18.65;;;;;;;24.53;56.41;101772.00;143717;602;47008;-70
2022/10/25 08:39:19;;;;;;;22.80;18.90;;;;;;;24.52;56.10;101770.34;143718;580;47010;-71
2022/10/25 08:42:03;;;;;;;27.62;19.48;;;;;;;24.52;56.37;101764.03;143716;568;47013;-73
2022/10/25 08:45:10;;;;;;;29.17;18.20;;;;;;;24.68;55.93;101770.41;143719;598;47008;-71
2022/10/25 08:47:42;;;;;;;26.70;19.08;;;;;;;24.66;55.93;101770.69;143718;686;47006;-70
2022/10/25 08:50:39;;;;;;;26.40;18.23;;;;;;;24.85;55.78;101767.47;143719;582;47010;-71
2022/10/25 08:53:12;;;;;;;27.48;18.25;;;;;;;25.03;55.11;101766.16;143716;580;47006;-70
2022/10/25 08:55:42;;;;;;;22.00;17.20;;;;;;;25.17;54.45;101758.22;143719;598;47008;-71
2022/10/25 08:58:16;;;;;;;23.05;15.27;;;;;;;25.39;54.11;101760.72;143717;573;47006;-70
2022/10/25 09:00:46;;;;;;;25.42;15.20;;;;;;;25.54;53.30;101767.34;143717;624;47012;-70
2022/10/25 09:03:32;;;;;;;23.20;15.45;;;;;;;25.66;52.92;101764.31;143716;604;47006;-71
2022/10/25 09:06:48;;;;;;;24.48;16.17;;;;;;;25.89;52.22;101754.66;143718;577;47008;-70
2022/10/25 09:09:57;;;;;;;21.95;14.90;;;;;;;26.46;51.03;101754.56;143718;587;47004;-72
2022/10/25 09:13:03;;;;;;;23.12;14.95;;;;;;;27.30;48.65;101745.56;143715;590;47010;-71
2022/10/25 09:15:58;;;;;;;22.45;14.20;;;;;;;31.81;39.29;101747.25;143717;572;47004;-71
2022/10/25 09:18:31;;;;;;;;;;;;;;;34.90;33.24;101741.81;143720;985;47009;-70
2022/10/25 09:21:00;;;;;;;23.65;14.38;;;;;;;36.96;30.45;101735.88;143726;592;47002;-68
2022/10/25 09:23:31;;;;;;;16.52;12.85;;;;;;;38.56;27.41;101738.72;143717;593;47012;-69
2022/10/25 09:26:20;;;;;;;25.52;14.32;;;;;;;39.84;25.15;101734.38;143718;623;47011;-63
2022/10/25 09:29:04;;;;;;;20.55;13.82;;;;;;;40.98;23.50;101730.72;143717;626;47008;-65
2022/10/25 09:31:38;;;;;;;17.67;12.70;;;;;;;41.89;22.27;101715.47;143718;661;47008;-65
2022/10/25 09:34:08;;;;;;;19.67;13.48;;;;;;;42.65;21.84;101707.44;143717;576;47013;-65
2022/10/25 09:36:48;;;;;;;20.52;12.88;;;;;;;43.53;21.14;101703.59;143716;573;47006;-65
2022/10/25 09:39:42;;;;;;;19.50;13.93;;;;;;;44.33;19.74;101707.09;143717;609;47924;-64
2022/10/25 09:42:25;;;;;;;20.00;13.25;;;;;;;44.94;19.35;101705.22;143719;615;47004;-66
2022/10/25 09:44:58;;;;;;;24.00;13.38;;;;;;;45.21;18.74;101698.94;143717;603;47010;-64
2022/10/25 09:48:06;;;;;;;20.27;11.68;;;;;;;45.41;18.25;101685.84;143716;703;47004;-64
2022/10/25 09:51:05;;;;;;;18.30;12.13;;;;;;;45.47;18.25;101683.34;143717;667;47008;-64
2022/10/25 09:53:37;;;;;;;23.15;13.23;;;;;;;45.35;17.89;101673.34;143717;660;47004;-65
2022/10/25 09:56:04;;;;;;;23.83;14.05;;;;;;;45.40;18.11;101674.91;143717;670;47013;-65
2022/10/25 09:58:39;;;;;;;16.35;13.38;;;;;;;45.10;17.88;101665.81;143714;583;47004;-64
2022/10/25 10:01:24;;;;;;;20.40;12.80;;;;;;;44.51;18.27;101663.75;143715;568;47008;-64
2022/10/25 10:03:52;;;;;;;20.45;11.68;;;;;;;41.51;21.15;101666.84;143716;618;47004;-71
2022/10/25 10:06:26;;;;;;;18.62;11.10;;;;;;;37.85;26.34;101658.13;143718;572;47010;-72
2022/10/25 10:08:59;;;;;;;14.20;11.40;;;;;;;37.92;25.84;101655.53;143716;581;47006;-70
2022/10/25 10:11:27;;;;;;;22.53;13.53;;;;;;;36.29;28.12;101660.66;143718;615;47008;-69
2022/10/25 10:14:01;;;;;;;21.00;15.55;;;;;;;34.36;31.15;101646.84;143719;581;47004;-70
2022/10/25 10:16:43;;;;;;;23.20;12.48;;;;;;;33.15;33.24;101645.09;143716;581;47928;-71
2022/10/25 10:19:21;;;;;;;21.40;16.27;;;;;;;32.42;34.69;101652.16;143713;572;47006;-71
2022/10/25 10:21:56;;;;;;;19.85;10.45;;;;;;;31.77;35.48;101647.09;143714;580;47008;-70
2022/10/25 10:24:26;;;;;;;14.70;10.35;;;;;;;31.19;36.12;101643.34;143715;568;47005;-70
2022/10/25 10:26:56;;;;;;;21.77;13.52;;;;;;;30.68;37.51;101638.75;143716;586;47010;-69
2022/10/25 10:29:26;;;;;;;21.73;11.27;;;;;;;30.34;38.62;101630.91;143715;608;47006;-71
2022/10/25 10:32:02;;;;;;;21.52;11.30;;;;;;;29.87;40.09;101625.50;143715;594;47002;-70
2022/10/25 10:34:50;;;;;;;20.65;12.10;;;;;;;29.45;40.61;101629.06;143716;579;47006;-70
2022/10/25 10:37:27;;;;;;;23.02;12.20;;;;;;;29.10;41.26;101627.72;143715;579;47010;-70
2022/10/25 10:39:58;;;;;;;18.12;13.07;;;;;;;28.89;41.92;101615.06;143712;598;47007;-69
2022/10/25 10:42:36;;;;;;;17.75;11.48;;;;;;;28.51;42.62;101628.91;143715;680;47008;-69
2022/10/25 10:45:20;;;;;;;17.17;12.43;;;;;;;28.32;42.81;101620.63;143716;573;47006;-68
2022/10/25 10:48:05;;;;;;;18.10;10.70;;;;;;;28.23;44.12;101617.69;143710;617;47008;-71
2022/10/25 10:50:33;;;;;;;19.00;11.63;;;;;;;28.07;44.58;101619.78;143716;574;46010;-69
2022/10/25 10:53:03;;;;;;;19.62;10.30;;;;;;;27.98;44.88;101605.00;143716;585;47008;-69
2022/10/25 10:55:47;;;;;;;14.40;11.32;;;;;;;27.84;45.77;101608.47;143714;619;47004;-69
2022/10/25 10:58:28;;;;;;;18.55;11.95;;;;;;;27.75;46.10;101615.78;143717;596;47010;-68
2022/10/25 11:01:12;;;;;;;14.02;10.82;;;;;;;27.72;46.02;101616.34;143713;572;47014;-68
2022/10/25 11:03:48;;;;;;;14.52;12.60;;;;;;;27.63;46.51;101607.91;143716;637;47008;-68
2022/10/25 11:06:26;;;;;;;15.45;9.52;;;;;;;27.45;46.97;101608.62;143714;595;47004;-69
2022/10/25 11:09:21;;;;;;;15.15;9.60;;;;;;;27.30;47.20;101604.06;143716;592;47011;-69
2022/10/25 11:12:25;;;;;;;17.05;10.43;;;;;;;27.27;47.39;101599.16;143713;568;47006;-69
2022/10/25 11:14:52;;;;;;;11.68;10.18;;;;;;;27.22;46.92;101602.75;143715;699;47008;-69
2022/10/25 11:17:31;;;;;;;15.73;11.43;;;;;;;27.10;47.08;101594.88;143716;590;47004;-71
2022/10/25 11:20:30;;;;;;;18.42;8.77;;;;;;;27.09;47.87;101594.06;143717;609;47010;-62
2022/10/25 11:23:10;;;;;;;14.38;7.87;;;;;;;27.22;47.30;101589.81;143712;673;47006;-62
2022/10/25 11:25:47;;;;;;;15.13;9.98;;;;;;;27.37;46.95;101583.28;143717;641;47008;-62
2022/10/25 11:28:44;;;;;;;16.98;9.10;;;;;;;27.58;46.86;101579.53;143716;702;47006;-63
2022/10/25 11:31:22;;;;;;;12.35;8.75;;;;;;;27.61;46.66;101573.44;143711;644;48928;-62
2022/10/25 11:34:30;;;;;;;16.27;8.85;;;;;;;27.71;46.51;101567.78;143714;605;47006;-61
2022/10/25 11:37:33;;;;;;;11.93;8.45;;;;;;;27.88;46.16;101567.31;143717;583;47008;-61
2022/10/25 11:40:20;;;;;;;15.13;8.82;;;;;;;27.99;45.81;101566.06;143714;619;47007;-61